sensor_id;sensor_type;location;lat;lon;timestamp;P1;durP1;ratioP1;P2;durP2;ratioP2
1577;SDS011;57623;53.608;10.004;2023-07-28T00:00:27;6.13;;;5.53;;
1577;SDS011;57623;53.608;10.004;2023-07-28T00:02:55;6.20;;;5.10;;
1577;SDS011;57623;53.608;10.004;2023-07-28T00:05:23;5.50;;;5.10;;
1577;SDS011;57623;53.608;10.004;2023-07-28T00:07:52;5.40;;;5.00;;
1577;SDS011;57623;53.608;10.004;2023-07-28T00:10:20;5.70;;;5.20;;
1577;SDS011;57623;53.608;10.004;2023-07-28T00:12:50;5.17;;;4.87;;
1577;SDS011;57623;53.608;10.004;2023-07-28T00:15:18;4.83;;;4.43;;
1577;SDS011;57623;53.608;10.004;2023-07-28T00:17:45;5.57;;;5.17;;
1577;SDS011;57623;53.608;10.004;2023-07-28T00:20:14;5.43;;;5.03;;
1577;SDS011;57623;53.608;10.004;2023-07-28T00:22:42;5.13;;;4.83;;
1577;SDS011;57623;53.608;10.004;2023-07-28T00:25:11;5.47;;;5.07;;
1577;SDS011;57623;53.608;10.004;2023-07-28T00:27:39;5.50;;;5.10;;
1577;SDS011;57623;53.608;10.004;2023-07-28T00:30:07;5.43;;;5.03;;
1577;SDS011;57623;53.608;10.004;2023-07-28T00:32:37;5.50;;;5.10;;
1577;SDS011;57623;53.608;10.004;2023-07-28T00:35:05;4.97;;;4.67;;
1577;SDS011;57623;53.608;10.004;2023-07-28T00:37:33;4.77;;;4.40;;
1577;SDS011;57623;53.608;10.004;2023-07-28T00:40:01;5.20;;;4.90;;
1577;SDS011;57623;53.608;10.004;2023-07-28T00:42:31;5.80;;;5.40;;
1577;SDS011;57623;53.608;10.004;2023-07-28T00:45:02;5.53;;;5.13;;
1577;SDS011;57623;53.608;10.004;2023-07-28T00:47:31;5.23;;;4.83;;
1577;SDS011;57623;53.608;10.004;2023-07-28T00:49:59;4.73;;;4.33;;
1577;SDS011;57623;53.608;10.004;2023-07-28T00:52:27;4.83;;;4.50;;
1577;SDS011;57623;53.608;10.004;2023-07-28T00:54:55;4.80;;;4.50;;
1577;SDS011;57623;53.608;10.004;2023-07-28T00:57:23;4.70;;;4.40;;
1577;SDS011;57623;53.608;10.004;2023-07-28T00:59:53;5.30;;;4.90;;
1577;SDS011;57623;53.608;10.004;2023-07-28T01:02:20;5.10;;;4.70;;
1577;SDS011;57623;53.608;10.004;2023-07-28T01:04:49;4.63;;;4.33;;
1577;SDS011;57623;53.608;10.004;2023-07-28T01:07:21;4.87;;;4.53;;
1577;SDS011;57623;53.608;10.004;2023-07-28T01:09:56;4.50;;;4.20;;
1577;SDS011;57623;53.608;10.004;2023-07-28T01:12:30;4.50;;;4.17;;
1577;SDS011;57623;53.608;10.004;2023-07-28T01:14:59;4.90;;;4.60;;
1577;SDS011;57623;53.608;10.004;2023-07-28T01:17:27;4.80;;;4.40;;
1577;SDS011;57623;53.608;10.004;2023-07-28T01:19:55;4.30;;;4.00;;
1577;SDS011;57623;53.608;10.004;2023-07-28T01:22:30;5.13;;;4.73;;
1577;SDS011;57623;53.608;10.004;2023-07-28T01:25:15;4.57;;;4.27;;
1577;SDS011;57623;53.608;10.004;2023-07-28T01:27:51;4.67;;;4.27;;
1577;SDS011;57623;53.608;10.004;2023-07-28T01:30:20;4.70;;;4.40;;
1577;SDS011;57623;53.608;10.004;2023-07-28T01:32:53;4.50;;;4.10;;
1577;SDS011;57623;53.608;10.004;2023-07-28T01:35:22;4.20;;;3.90;;
1577;SDS011;57623;53.608;10.004;2023-07-28T01:37:50;3.80;;;3.60;;
1577;SDS011;57623;53.608;10.004;2023-07-28T01:40:18;3.93;;;3.67;;
1577;SDS011;57623;53.608;10.004;2023-07-28T01:42:46;3.83;;;3.63;;
1577;SDS011;57623;53.608;10.004;2023-07-28T01:45:16;4.00;;;3.77;;
1577;SDS011;57623;53.608;10.004;2023-07-28T01:47:44;4.10;;;3.80;;
1577;SDS011;57623;53.608;10.004;2023-07-28T01:50:12;4.30;;;4.00;;
1577;SDS011;57623;53.608;10.004;2023-07-28T01:52:40;4.20;;;3.90;;
1577;SDS011;57623;53.608;10.004;2023-07-28T01:55:08;4.20;;;3.70;;
1577;SDS011;57623;53.608;10.004;2023-07-28T01:57:38;4.50;;;4.20;;
1577;SDS011;57623;53.608;10.004;2023-07-28T02:00:07;3.90;;;3.70;;
1577;SDS011;57623;53.608;10.004;2023-07-28T02:02:38;4.20;;;3.90;;
1577;SDS011;57623;53.608;10.004;2023-07-28T02:05:06;5.00;;;4.70;;
1577;SDS011;57623;53.608;10.004;2023-07-28T02:07:34;4.57;;;4.27;;
1577;SDS011;57623;53.608;10.004;2023-07-28T02:10:02;5.40;;;5.00;;
1577;SDS011;57623;53.608;10.004;2023-07-28T02:12:31;4.87;;;4.30;;
1577;SDS011;57623;53.608;10.004;2023-07-28T02:14:59;5.30;;;4.90;;
1577;SDS011;57623;53.608;10.004;2023-07-28T02:17:27;5.00;;;4.70;;
1577;SDS011;57623;53.608;10.004;2023-07-28T02:19:57;5.17;;;4.87;;
1577;SDS011;57623;53.608;10.004;2023-07-28T02:22:25;5.30;;;4.93;;
1577;SDS011;57623;53.608;10.004;2023-07-28T02:24:53;5.70;;;5.30;;
1577;SDS011;57623;53.608;10.004;2023-07-28T02:27:21;5.50;;;5.10;;
1577;SDS011;57623;53.608;10.004;2023-07-28T02:29:49;5.37;;;5.07;;
1577;SDS011;57623;53.608;10.004;2023-07-28T02:32:17;5.80;;;5.40;;
1577;SDS011;57623;53.608;10.004;2023-07-28T02:34:44;5.63;;;5.23;;
1577;SDS011;57623;53.608;10.004;2023-07-28T02:37:14;6.67;;;6.17;;
1577;SDS011;57623;53.608;10.004;2023-07-28T02:39:42;5.20;;;4.80;;
1577;SDS011;57623;53.608;10.004;2023-07-28T02:42:11;5.53;;;5.13;;
1577;SDS011;57623;53.608;10.004;2023-07-28T02:44:39;6.43;;;5.93;;
1577;SDS011;57623;53.608;10.004;2023-07-28T02:47:07;6.17;;;5.73;;
1577;SDS011;57623;53.608;10.004;2023-07-28T02:49:35;6.53;;;6.03;;
1577;SDS011;57623;53.608;10.004;2023-07-28T02:52:03;5.87;;;5.47;;
1577;SDS011;57623;53.608;10.004;2023-07-28T02:54:33;6.07;;;5.50;;
1577;SDS011;57623;53.608;10.004;2023-07-28T02:57:01;6.13;;;5.73;;
1577;SDS011;57623;53.608;10.004;2023-07-28T02:59:29;6.07;;;5.57;;
1577;SDS011;57623;53.608;10.004;2023-07-28T03:01:57;5.60;;;5.20;;
1577;SDS011;57623;53.608;10.004;2023-07-28T03:04:26;5.83;;;5.43;;
1577;SDS011;57623;53.608;10.004;2023-07-28T03:06:53;5.30;;;4.90;;
1577;SDS011;57623;53.608;10.004;2023-07-28T03:09:22;4.80;;;4.50;;
1577;SDS011;57623;53.608;10.004;2023-07-28T03:11:51;4.17;;;3.87;;
1577;SDS011;57623;53.608;10.004;2023-07-28T03:14:19;4.50;;;4.20;;
1577;SDS011;57623;53.608;10.004;2023-07-28T03:16:47;5.27;;;4.87;;
1577;SDS011;57623;53.608;10.004;2023-07-28T03:19:15;4.63;;;4.03;;
1577;SDS011;57623;53.608;10.004;2023-07-28T03:21:44;4.60;;;4.30;;
1577;SDS011;57623;53.608;10.004;2023-07-28T03:24:12;4.73;;;4.43;;
1577;SDS011;57623;53.608;10.004;2023-07-28T03:26:39;4.43;;;4.13;;
1577;SDS011;57623;53.608;10.004;2023-07-28T03:29:09;4.30;;;4.00;;
1577;SDS011;57623;53.608;10.004;2023-07-28T03:31:37;4.10;;;3.87;;
1577;SDS011;57623;53.608;10.004;2023-07-28T03:34:05;4.57;;;4.27;;
1577;SDS011;57623;53.608;10.004;2023-07-28T03:36:33;4.10;;;3.80;;
1577;SDS011;57623;53.608;10.004;2023-07-28T03:39:01;4.30;;;4.00;;
1577;SDS011;57623;53.608;10.004;2023-07-28T03:41:29;4.03;;;3.73;;
1577;SDS011;57623;53.608;10.004;2023-07-28T03:43:57;3.73;;;3.53;;
1577;SDS011;57623;53.608;10.004;2023-07-28T03:46:26;4.20;;;3.90;;
1577;SDS011;57623;53.608;10.004;2023-07-28T03:48:56;3.93;;;3.73;;
1577;SDS011;57623;53.608;10.004;2023-07-28T03:51:26;3.40;;;3.20;;
1577;SDS011;57623;53.608;10.004;2023-07-28T03:53:54;3.60;;;3.40;;
1577;SDS011;57623;53.608;10.004;2023-07-28T03:56:22;4.20;;;3.90;;
1577;SDS011;57623;53.608;10.004;2023-07-28T03:58:50;3.67;;;3.40;;
1577;SDS011;57623;53.608;10.004;2023-07-28T04:01:19;4.13;;;3.73;;
1577;SDS011;57623;53.608;10.004;2023-07-28T04:03:49;4.03;;;3.73;;
1577;SDS011;57623;53.608;10.004;2023-07-28T04:06:17;4.07;;;3.77;;
1577;SDS011;57623;53.608;10.004;2023-07-28T04:08:45;3.43;;;3.23;;
1577;SDS011;57623;53.608;10.004;2023-07-28T04:11:13;4.40;;;4.10;;
1577;SDS011;57623;53.608;10.004;2023-07-28T04:13:41;4.10;;;3.80;;
1577;SDS011;57623;53.608;10.004;2023-07-28T04:16:09;4.30;;;3.90;;
1577;SDS011;57623;53.608;10.004;2023-07-28T04:18:37;4.50;;;4.20;;
1577;SDS011;57623;53.608;10.004;2023-07-28T04:21:06;4.97;;;4.60;;
1577;SDS011;57623;53.608;10.004;2023-07-28T04:23:34;4.43;;;4.13;;
1577;SDS011;57623;53.608;10.004;2023-07-28T04:26:02;4.83;;;4.43;;
1577;SDS011;57623;53.608;10.004;2023-07-28T04:28:30;4.33;;;4.10;;
1577;SDS011;57623;53.608;10.004;2023-07-28T04:30:58;6.20;;;5.10;;
1577;SDS011;57623;53.608;10.004;2023-07-28T04:33:26;5.50;;;5.10;;
1577;SDS011;57623;53.608;10.004;2023-07-28T04:35:54;4.87;;;4.57;;
1577;SDS011;57623;53.608;10.004;2023-07-28T04:38:23;6.00;;;5.50;;
1577;SDS011;57623;53.608;10.004;2023-07-28T04:40:51;5.07;;;4.67;;
1577;SDS011;57623;53.608;10.004;2023-07-28T04:43:19;6.10;;;5.60;;
1577;SDS011;57623;53.608;10.004;2023-07-28T04:45:47;6.03;;;5.53;;
1577;SDS011;57623;53.608;10.004;2023-07-28T04:48:15;5.50;;;5.10;;
1577;SDS011;57623;53.608;10.004;2023-07-28T04:50:44;5.40;;;5.00;;
1577;SDS011;57623;53.608;10.004;2023-07-28T04:53:12;6.00;;;5.60;;
1577;SDS011;57623;53.608;10.004;2023-07-28T04:55:41;5.43;;;5.03;;
1577;SDS011;57623;53.608;10.004;2023-07-28T04:58:09;5.87;;;5.37;;
1577;SDS011;57623;53.608;10.004;2023-07-28T05:00:37;5.70;;;5.30;;
1577;SDS011;57623;53.608;10.004;2023-07-28T05:03:05;5.47;;;5.07;;
1577;SDS011;57623;53.608;10.004;2023-07-28T05:05:33;5.63;;;5.23;;
1577;SDS011;57623;53.608;10.004;2023-07-28T05:08:01;5.50;;;5.10;;
1577;SDS011;57623;53.608;10.004;2023-07-28T05:10:29;5.73;;;5.33;;
1577;SDS011;57623;53.608;10.004;2023-07-28T05:12:58;6.23;;;5.63;;
1577;SDS011;57623;53.608;10.004;2023-07-28T05:15:26;6.47;;;5.97;;
1577;SDS011;57623;53.608;10.004;2023-07-28T05:17:54;5.93;;;5.50;;
1577;SDS011;57623;53.608;10.004;2023-07-28T05:20:22;5.60;;;5.03;;
1577;SDS011;57623;53.608;10.004;2023-07-28T05:22:50;5.37;;;5.00;;
1577;SDS011;57623;53.608;10.004;2023-07-28T05:25:18;5.17;;;4.77;;
1577;SDS011;57623;53.608;10.004;2023-07-28T05:27:46;4.97;;;4.67;;
1577;SDS011;57623;53.608;10.004;2023-07-28T05:30:15;5.77;;;5.27;;
1577;SDS011;57623;53.608;10.004;2023-07-28T05:32:43;5.77;;;5.37;;
1577;SDS011;57623;53.608;10.004;2023-07-28T05:35:12;6.00;;;5.50;;
1577;SDS011;57623;53.608;10.004;2023-07-28T05:37:41;6.23;;;5.73;;
1577;SDS011;57623;53.608;10.004;2023-07-28T05:40:10;6.10;;;5.70;;
1577;SDS011;57623;53.608;10.004;2023-07-28T05:42:39;6.07;;;5.67;;
1577;SDS011;57623;53.608;10.004;2023-07-28T05:45:08;5.60;;;5.20;;
1577;SDS011;57623;53.608;10.004;2023-07-28T05:47:38;7.13;;;5.23;;
1577;SDS011;57623;53.608;10.004;2023-07-28T05:50:06;5.00;;;4.70;;
1577;SDS011;57623;53.608;10.004;2023-07-28T05:52:34;5.67;;;5.27;;
1577;SDS011;57623;53.608;10.004;2023-07-28T05:55:02;5.10;;;4.80;;
1577;SDS011;57623;53.608;10.004;2023-07-28T05:57:31;5.07;;;4.77;;
1577;SDS011;57623;53.608;10.004;2023-07-28T05:59:59;5.80;;;5.40;;
1577;SDS011;57623;53.608;10.004;2023-07-28T06:02:27;5.00;;;4.70;;
1577;SDS011;57623;53.608;10.004;2023-07-28T06:04:56;4.87;;;4.57;;
1577;SDS011;57623;53.608;10.004;2023-07-28T06:07:24;5.10;;;4.80;;
1577;SDS011;57623;53.608;10.004;2023-07-28T06:09:53;4.97;;;4.67;;
1577;SDS011;57623;53.608;10.004;2023-07-28T06:12:20;5.73;;;5.33;;
1577;SDS011;57623;53.608;10.004;2023-07-28T06:14:49;4.73;;;4.40;;
1577;SDS011;57623;53.608;10.004;2023-07-28T06:17:17;5.73;;;5.33;;
1577;SDS011;57623;53.608;10.004;2023-07-28T06:19:45;4.83;;;4.47;;
1577;SDS011;57623;53.608;10.004;2023-07-28T06:22:14;5.10;;;4.80;;
1577;SDS011;57623;53.608;10.004;2023-07-28T06:24:42;5.67;;;5.27;;
1577;SDS011;57623;53.608;10.004;2023-07-28T06:27:10;4.70;;;4.40;;
1577;SDS011;57623;53.608;10.004;2023-07-28T06:29:38;4.53;;;4.23;;
1577;SDS011;57623;53.608;10.004;2023-07-28T06:32:06;5.30;;;4.90;;
1577;SDS011;57623;53.608;10.004;2023-07-28T06:34:35;4.93;;;4.63;;
1577;SDS011;57623;53.608;10.004;2023-07-28T06:37:03;4.80;;;4.50;;
1577;SDS011;57623;53.608;10.004;2023-07-28T06:39:33;5.00;;;4.70;;
1577;SDS011;57623;53.608;10.004;2023-07-28T06:42:01;4.93;;;4.53;;
1577;SDS011;57623;53.608;10.004;2023-07-28T06:44:29;4.70;;;4.40;;
1577;SDS011;57623;53.608;10.004;2023-07-28T06:46:57;4.90;;;4.60;;
1577;SDS011;57623;53.608;10.004;2023-07-28T06:49:25;4.30;;;4.10;;
1577;SDS011;57623;53.608;10.004;2023-07-28T06:51:53;4.87;;;4.57;;
1577;SDS011;57623;53.608;10.004;2023-07-28T06:54:21;4.90;;;4.50;;
1577;SDS011;57623;53.608;10.004;2023-07-28T06:56:50;5.07;;;4.70;;
1577;SDS011;57623;53.608;10.004;2023-07-28T06:59:18;4.57;;;4.27;;
1577;SDS011;57623;53.608;10.004;2023-07-28T07:01:48;4.67;;;4.20;;
1577;SDS011;57623;53.608;10.004;2023-07-28T07:04:16;5.13;;;4.23;;
1577;SDS011;57623;53.608;10.004;2023-07-28T07:06:44;5.07;;;4.67;;
1577;SDS011;57623;53.608;10.004;2023-07-28T07:09:12;4.90;;;4.60;;
1577;SDS011;57623;53.608;10.004;2023-07-28T07:11:41;4.43;;;4.13;;
1577;SDS011;57623;53.608;10.004;2023-07-28T07:14:10;4.60;;;4.30;;
1577;SDS011;57623;53.608;10.004;2023-07-28T07:16:38;4.07;;;3.77;;
1577;SDS011;57623;53.608;10.004;2023-07-28T07:19:06;3.90;;;3.70;;
1577;SDS011;57623;53.608;10.004;2023-07-28T07:21:35;4.00;;;3.80;;
1577;SDS011;57623;53.608;10.004;2023-07-28T07:24:03;4.70;;;3.93;;
1577;SDS011;57623;53.608;10.004;2023-07-28T07:26:32;3.83;;;3.63;;
1577;SDS011;57623;53.608;10.004;2023-07-28T07:29:00;4.03;;;3.83;;
1577;SDS011;57623;53.608;10.004;2023-07-28T07:31:30;4.20;;;3.90;;
1577;SDS011;57623;53.608;10.004;2023-07-28T07:33:59;4.10;;;3.90;;
1577;SDS011;57623;53.608;10.004;2023-07-28T07:36:27;4.07;;;3.77;;
1577;SDS011;57623;53.608;10.004;2023-07-28T07:38:55;4.00;;;3.80;;
1577;SDS011;57623;53.608;10.004;2023-07-28T07:41:23;4.27;;;3.97;;
1577;SDS011;57623;53.608;10.004;2023-07-28T07:43:52;4.13;;;3.83;;
1577;SDS011;57623;53.608;10.004;2023-07-28T07:46:21;4.33;;;4.03;;
1577;SDS011;57623;53.608;10.004;2023-07-28T07:48:50;3.97;;;3.73;;
1577;SDS011;57623;53.608;10.004;2023-07-28T07:51:19;4.00;;;3.80;;
1577;SDS011;57623;53.608;10.004;2023-07-28T07:53:47;3.53;;;3.33;;
1577;SDS011;57623;53.608;10.004;2023-07-28T07:56:15;3.73;;;3.53;;
1577;SDS011;57623;53.608;10.004;2023-07-28T07:58:43;3.60;;;3.40;;
1577;SDS011;57623;53.608;10.004;2023-07-28T08:01:11;3.40;;;3.20;;
1577;SDS011;57623;53.608;10.004;2023-07-28T08:03:39;3.70;;;3.50;;
1577;SDS011;57623;53.608;10.004;2023-07-28T08:06:08;3.33;;;3.13;;
1577;SDS011;57623;53.608;10.004;2023-07-28T08:08:37;3.93;;;3.73;;
1577;SDS011;57623;53.608;10.004;2023-07-28T08:11:09;4.20;;;3.90;;
1577;SDS011;57623;53.608;10.004;2023-07-28T08:13:38;4.33;;;4.00;;
1577;SDS011;57623;53.608;10.004;2023-07-28T08:16:06;3.23;;;3.03;;
1577;SDS011;57623;53.608;10.004;2023-07-28T08:18:34;3.60;;;3.40;;
1577;SDS011;57623;53.608;10.004;2023-07-28T08:21:02;3.60;;;3.30;;
1577;SDS011;57623;53.608;10.004;2023-07-28T08:23:31;3.20;;;3.00;;
1577;SDS011;57623;53.608;10.004;2023-07-28T08:25:59;4.20;;;3.90;;
1577;SDS011;57623;53.608;10.004;2023-07-28T08:28:27;3.43;;;3.23;;
1577;SDS011;57623;53.608;10.004;2023-07-28T08:30:56;3.47;;;3.27;;
1577;SDS011;57623;53.608;10.004;2023-07-28T08:33:25;3.57;;;3.37;;
1577;SDS011;57623;53.608;10.004;2023-07-28T08:35:53;3.67;;;3.37;;
1577;SDS011;57623;53.608;10.004;2023-07-28T08:38:21;3.57;;;3.37;;
1577;SDS011;57623;53.608;10.004;2023-07-28T08:40:50;3.90;;;3.70;;
1577;SDS011;57623;53.608;10.004;2023-07-28T08:43:18;3.80;;;3.60;;
1577;SDS011;57623;53.608;10.004;2023-07-28T08:45:46;4.00;;;3.70;;
1577;SDS011;57623;53.608;10.004;2023-07-28T08:48:14;3.50;;;3.30;;
1577;SDS011;57623;53.608;10.004;2023-07-28T08:50:43;3.57;;;3.37;;
1577;SDS011;57623;53.608;10.004;2023-07-28T08:53:11;3.60;;;3.40;;
1577;SDS011;57623;53.608;10.004;2023-07-28T08:55:39;3.40;;;3.20;;
1577;SDS011;57623;53.608;10.004;2023-07-28T08:58:15;3.63;;;3.43;;
1577;SDS011;57623;53.608;10.004;2023-07-28T09:00:43;4.10;;;3.80;;
1577;SDS011;57623;53.608;10.004;2023-07-28T09:03:13;3.73;;;3.50;;
1577;SDS011;57623;53.608;10.004;2023-07-28T09:05:41;3.30;;;3.10;;
1577;SDS011;57623;53.608;10.004;2023-07-28T09:08:10;3.70;;;3.50;;
1577;SDS011;57623;53.608;10.004;2023-07-28T09:10:40;4.30;;;4.00;;
1577;SDS011;57623;53.608;10.004;2023-07-28T09:13:09;4.00;;;3.80;;
1577;SDS011;57623;53.608;10.004;2023-07-28T09:15:43;3.87;;;3.63;;
1577;SDS011;57623;53.608;10.004;2023-07-28T09:18:11;3.83;;;3.53;;
1577;SDS011;57623;53.608;10.004;2023-07-28T09:20:40;3.57;;;3.37;;
1577;SDS011;57623;53.608;10.004;2023-07-28T09:23:10;3.90;;;3.60;;
1577;SDS011;57623;53.608;10.004;2023-07-28T09:25:40;4.10;;;3.90;;
1577;SDS011;57623;53.608;10.004;2023-07-28T09:28:09;4.43;;;4.13;;
1577;SDS011;57623;53.608;10.004;2023-07-28T09:30:45;4.00;;;3.80;;
1577;SDS011;57623;53.608;10.004;2023-07-28T09:33:28;4.23;;;4.03;;
1577;SDS011;57623;53.608;10.004;2023-07-28T09:35:57;3.50;;;3.20;;
1577;SDS011;57623;53.608;10.004;2023-07-28T09:38:35;3.70;;;3.50;;
1577;SDS011;57623;53.608;10.004;2023-07-28T09:41:05;3.60;;;3.40;;
1577;SDS011;57623;53.608;10.004;2023-07-28T09:43:35;3.67;;;3.47;;
1577;SDS011;57623;53.608;10.004;2023-07-28T09:46:06;3.57;;;3.37;;
1577;SDS011;57623;53.608;10.004;2023-07-28T09:48:36;3.63;;;3.43;;
1577;SDS011;57623;53.608;10.004;2023-07-28T09:51:06;4.13;;;3.93;;
1577;SDS011;57623;53.608;10.004;2023-07-28T09:53:40;4.30;;;4.00;;
1577;SDS011;57623;53.608;10.004;2023-07-28T09:56:13;3.90;;;3.70;;
1577;SDS011;57623;53.608;10.004;2023-07-28T09:58:45;3.73;;;3.43;;
1577;SDS011;57623;53.608;10.004;2023-07-28T10:01:19;3.77;;;3.57;;
1577;SDS011;57623;53.608;10.004;2023-07-28T10:03:48;2.97;;;2.73;;
1577;SDS011;57623;53.608;10.004;2023-07-28T10:06:16;2.97;;;2.77;;
1577;SDS011;57623;53.608;10.004;2023-07-28T10:08:46;2.63;;;2.53;;
1577;SDS011;57623;53.608;10.004;2023-07-28T10:11:14;3.10;;;2.93;;
1577;SDS011;57623;53.608;10.004;2023-07-28T10:13:44;2.60;;;2.40;;
1577;SDS011;57623;53.608;10.004;2023-07-28T10:16:13;2.50;;;2.40;;
1577;SDS011;57623;53.608;10.004;2023-07-28T10:18:52;2.77;;;2.67;;
1577;SDS011;57623;53.608;10.004;2023-07-28T10:21:21;2.80;;;2.60;;
1577;SDS011;57623;53.608;10.004;2023-07-28T10:23:54;3.53;;;2.20;;
1577;SDS011;57623;53.608;10.004;2023-07-28T10:26:30;2.77;;;2.67;;
1577;SDS011;57623;53.608;10.004;2023-07-28T10:29:09;2.60;;;2.40;;
1577;SDS011;57623;53.608;10.004;2023-07-28T10:31:37;2.43;;;2.33;;
1577;SDS011;57623;53.608;10.004;2023-07-28T10:34:18;2.40;;;2.30;;
1577;SDS011;57623;53.608;10.004;2023-07-28T10:36:55;2.20;;;2.10;;
1577;SDS011;57623;53.608;10.004;2023-07-28T10:39:24;2.50;;;2.40;;
1577;SDS011;57623;53.608;10.004;2023-07-28T10:42:02;2.23;;;2.13;;
1577;SDS011;57623;53.608;10.004;2023-07-28T10:44:31;2.20;;;2.10;;
1577;SDS011;57623;53.608;10.004;2023-07-28T10:47:01;2.90;;;2.80;;
1577;SDS011;57623;53.608;10.004;2023-07-28T10:49:31;2.33;;;2.23;;
1577;SDS011;57623;53.608;10.004;2023-07-28T10:52:01;2.43;;;2.33;;
1577;SDS011;57623;53.608;10.004;2023-07-28T10:54:30;2.40;;;2.30;;
1577;SDS011;57623;53.608;10.004;2023-07-28T10:57:01;2.33;;;2.23;;
1577;SDS011;57623;53.608;10.004;2023-07-28T10:59:30;2.40;;;2.30;;
1577;SDS011;57623;53.608;10.004;2023-07-28T11:01:58;2.10;;;2.00;;
1577;SDS011;57623;53.608;10.004;2023-07-28T11:04:26;2.83;;;2.70;;
1577;SDS011;57623;53.608;10.004;2023-07-28T11:06:55;2.37;;;2.27;;
1577;SDS011;57623;53.608;10.004;2023-07-28T11:09:23;2.63;;;2.53;;
1577;SDS011;57623;53.608;10.004;2023-07-28T11:11:51;2.30;;;2.20;;
1577;SDS011;57623;53.608;10.004;2023-07-28T11:14:19;2.43;;;2.33;;
1577;SDS011;57623;53.608;10.004;2023-07-28T11:16:48;2.67;;;2.57;;
1577;SDS011;57623;53.608;10.004;2023-07-28T11:19:17;2.70;;;2.60;;
1577;SDS011;57623;53.608;10.004;2023-07-28T11:21:51;2.70;;;2.50;;
1577;SDS011;57623;53.608;10.004;2023-07-28T11:24:21;2.43;;;2.30;;
1577;SDS011;57623;53.608;10.004;2023-07-28T11:26:50;2.57;;;2.37;;
1577;SDS011;57623;53.608;10.004;2023-07-28T11:29:18;2.60;;;2.50;;
1577;SDS011;57623;53.608;10.004;2023-07-28T11:31:47;2.87;;;2.67;;
1577;SDS011;57623;53.608;10.004;2023-07-28T11:34:16;2.37;;;2.27;;
1577;SDS011;57623;53.608;10.004;2023-07-28T11:36:44;2.57;;;2.47;;
1577;SDS011;57623;53.608;10.004;2023-07-28T11:39:12;2.67;;;2.53;;
1577;SDS011;57623;53.608;10.004;2023-07-28T11:41:42;2.63;;;2.53;;
1577;SDS011;57623;53.608;10.004;2023-07-28T11:44:14;2.23;;;2.13;;
1577;SDS011;57623;53.608;10.004;2023-07-28T11:46:43;2.53;;;2.43;;
1577;SDS011;57623;53.608;10.004;2023-07-28T11:49:12;2.57;;;2.47;;
1577;SDS011;57623;53.608;10.004;2023-07-28T11:51:43;2.70;;;2.60;;
1577;SDS011;57623;53.608;10.004;2023-07-28T11:54:12;2.37;;;2.27;;
1577;SDS011;57623;53.608;10.004;2023-07-28T11:56:43;2.90;;;2.70;;
1577;SDS011;57623;53.608;10.004;2023-07-28T11:59:14;2.40;;;2.30;;
1577;SDS011;57623;53.608;10.004;2023-07-28T12:01:52;2.70;;;2.60;;
1577;SDS011;57623;53.608;10.004;2023-07-28T12:04:24;2.87;;;2.67;;
1577;SDS011;57623;53.608;10.004;2023-07-28T12:07:00;2.47;;;2.37;;
1577;SDS011;57623;53.608;10.004;2023-07-28T12:09:31;3.50;;;2.50;;
1577;SDS011;57623;53.608;10.004;2023-07-28T12:12:01;3.07;;;2.87;;
1577;SDS011;57623;53.608;10.004;2023-07-28T12:14:31;2.70;;;2.43;;
1577;SDS011;57623;53.608;10.004;2023-07-28T12:17:03;2.50;;;2.40;;
1577;SDS011;57623;53.608;10.004;2023-07-28T12:19:43;2.20;;;2.10;;
1577;SDS011;57623;53.608;10.004;2023-07-28T12:22:23;2.50;;;2.40;;
1577;SDS011;57623;53.608;10.004;2023-07-28T12:24:51;2.63;;;2.40;;
1577;SDS011;57623;53.608;10.004;2023-07-28T12:27:20;2.43;;;2.33;;
1577;SDS011;57623;53.608;10.004;2023-07-28T12:29:58;2.50;;;2.40;;
1577;SDS011;57623;53.608;10.004;2023-07-28T12:32:30;2.20;;;2.10;;
1577;SDS011;57623;53.608;10.004;2023-07-28T12:35:01;2.13;;;2.03;;
1577;SDS011;57623;53.608;10.004;2023-07-28T12:37:32;2.10;;;2.00;;
1577;SDS011;57623;53.608;10.004;2023-07-28T12:40:03;2.43;;;2.33;;
1577;SDS011;57623;53.608;10.004;2023-07-28T12:42:33;2.03;;;1.93;;
1577;SDS011;57623;53.608;10.004;2023-07-28T12:45:05;2.43;;;2.23;;
1577;SDS011;57623;53.608;10.004;2023-07-28T12:47:38;2.20;;;2.00;;
1577;SDS011;57623;53.608;10.004;2023-07-28T12:50:06;2.10;;;2.00;;
1577;SDS011;57623;53.608;10.004;2023-07-28T12:52:39;1.77;;;1.67;;
1577;SDS011;57623;53.608;10.004;2023-07-28T12:55:11;2.00;;;1.90;;
1577;SDS011;57623;53.608;10.004;2023-07-28T12:57:42;1.87;;;1.77;;
1577;SDS011;57623;53.608;10.004;2023-07-28T13:00:11;1.80;;;1.70;;
1577;SDS011;57623;53.608;10.004;2023-07-28T13:02:43;3.20;;;1.80;;
1577;SDS011;57623;53.608;10.004;2023-07-28T13:05:12;2.07;;;1.60;;
1577;SDS011;57623;53.608;10.004;2023-07-28T13:07:42;2.20;;;2.00;;
1577;SDS011;57623;53.608;10.004;2023-07-28T13:10:13;1.77;;;1.63;;
1577;SDS011;57623;53.608;10.004;2023-07-28T13:12:45;1.97;;;1.87;;
1577;SDS011;57623;53.608;10.004;2023-07-28T13:15:15;2.13;;;2.03;;
1577;SDS011;57623;53.608;10.004;2023-07-28T13:17:43;2.13;;;2.03;;
1577;SDS011;57623;53.608;10.004;2023-07-28T13:20:11;2.00;;;1.90;;
1577;SDS011;57623;53.608;10.004;2023-07-28T13:22:39;2.20;;;2.10;;
1577;SDS011;57623;53.608;10.004;2023-07-28T13:25:08;2.00;;;1.90;;
1577;SDS011;57623;53.608;10.004;2023-07-28T13:27:36;2.20;;;2.10;;
1577;SDS011;57623;53.608;10.004;2023-07-28T13:30:06;2.70;;;2.50;;
1577;SDS011;57623;53.608;10.004;2023-07-28T13:32:35;2.70;;;2.50;;
1577;SDS011;57623;53.608;10.004;2023-07-28T13:35:03;2.30;;;2.10;;
1577;SDS011;57623;53.608;10.004;2023-07-28T13:37:31;1.83;;;1.73;;
1577;SDS011;57623;53.608;10.004;2023-07-28T13:40:00;1.60;;;1.50;;
1577;SDS011;57623;53.608;10.004;2023-07-28T13:42:28;2.10;;;1.90;;
1577;SDS011;57623;53.608;10.004;2023-07-28T13:44:56;1.73;;;1.53;;
1577;SDS011;57623;53.608;10.004;2023-07-28T13:47:25;1.80;;;1.70;;
1577;SDS011;57623;53.608;10.004;2023-07-28T13:49:54;2.10;;;2.00;;
1577;SDS011;57623;53.608;10.004;2023-07-28T13:52:22;2.00;;;1.90;;
1577;SDS011;57623;53.608;10.004;2023-07-28T13:54:50;1.70;;;1.60;;
1577;SDS011;57623;53.608;10.004;2023-07-28T13:57:21;2.00;;;1.90;;
1577;SDS011;57623;53.608;10.004;2023-07-28T13:59:49;1.83;;;1.73;;
1577;SDS011;57623;53.608;10.004;2023-07-28T14:02:17;2.00;;;1.90;;
1577;SDS011;57623;53.608;10.004;2023-07-28T14:04:47;5.50;;;2.00;;
1577;SDS011;57623;53.608;10.004;2023-07-28T14:07:14;1.90;;;1.80;;
1577;SDS011;57623;53.608;10.004;2023-07-28T14:09:43;1.90;;;1.80;;
1577;SDS011;57623;53.608;10.004;2023-07-28T14:12:11;2.20;;;2.10;;
1577;SDS011;57623;53.608;10.004;2023-07-28T14:14:39;1.70;;;1.60;;
1577;SDS011;57623;53.608;10.004;2023-07-28T14:17:07;1.80;;;1.70;;
1577;SDS011;57623;53.608;10.004;2023-07-28T14:19:36;1.70;;;1.60;;
1577;SDS011;57623;53.608;10.004;2023-07-28T14:22:06;1.47;;;1.37;;
1577;SDS011;57623;53.608;10.004;2023-07-28T14:24:35;1.87;;;1.77;;
1577;SDS011;57623;53.608;10.004;2023-07-28T14:27:03;1.70;;;1.60;;
1577;SDS011;57623;53.608;10.004;2023-07-28T14:29:32;1.27;;;1.27;;
1577;SDS011;57623;53.608;10.004;2023-07-28T14:32:00;1.63;;;1.43;;
1577;SDS011;57623;53.608;10.004;2023-07-28T14:34:28;1.50;;;1.40;;
1577;SDS011;57623;53.608;10.004;2023-07-28T14:36:56;3.07;;;1.40;;
1577;SDS011;57623;53.608;10.004;2023-07-28T14:39:25;1.80;;;1.70;;
1577;SDS011;57623;53.608;10.004;2023-07-28T14:41:53;1.47;;;1.40;;
1577;SDS011;57623;53.608;10.004;2023-07-28T14:44:21;2.40;;;1.50;;
1577;SDS011;57623;53.608;10.004;2023-07-28T14:46:49;1.67;;;1.57;;
1577;SDS011;57623;53.608;10.004;2023-07-28T14:49:17;2.83;;;2.00;;
1577;SDS011;57623;53.608;10.004;2023-07-28T14:51:45;1.40;;;1.40;;
1577;SDS011;57623;53.608;10.004;2023-07-28T14:54:13;1.53;;;1.43;;
1577;SDS011;57623;53.608;10.004;2023-07-28T14:56:42;1.60;;;1.50;;
1577;SDS011;57623;53.608;10.004;2023-07-28T14:59:11;1.43;;;1.33;;